Time;durP1;ratioP1;P1;durP2;ratioP2;P2;SDS_P1;SDS_P2;PMS_P1;PMS_P2;Temp;Humidity;BMP_temperature;BMP_pressure;BME280_temperature;BME280_humidity;BME280_pressure;Samples;Min_cycle;Max_cycle;Signal;HPM_P1;HPM_P2
2022/03/16 00:01:38;;;;;;;;;;;4.30;99.90;;;;;;5076503;28;19920;-60
2022/03/16 00:04:04;;;;;;;;;;;4.30;99.90;;;;;;5086326;28;19924;-60
2022/03/16 00:06:29;;;;;;;;;;;4.40;99.90;;;;;;5097233;28;19954;-60
2022/03/16 00:08:55;;;;;;;;;;;4.40;99.90;;;;;;5096162;28;20317;-60
2022/03/16 00:11:21;;;;;;;;;;;4.40;99.90;;;;;;5098790;28;19924;-60
2022/03/16 00:13:46;;;;;;;;;;;4.40;99.90;;;;;;5095247;28;20402;-59
2022/03/16 00:16:12;;;;;;;;;;;4.40;99.90;;;;;;5096309;28;19976;-60
2022/03/16 00:18:37;;;;;;;;;;;4.40;99.90;;;;;;5096099;28;19924;-60
2022/03/16 00:21:03;;;;;;;;;;;4.40;99.90;;;;;;5096504;28;20065;-60
2022/03/16 00:23:29;;;;;;;;;;;4.50;99.90;;;;;;5095989;28;19972;-60
2022/03/16 00:25:55;;;;;;;;;;;4.50;99.90;;;;;;5095839;28;19985;-60
2022/03/16 00:28:20;;;;;;;;;;;4.40;99.90;;;;;;5095270;28;19931;-60
2022/03/16 00:30:46;;;;;;;;;;;4.40;99.90;;;;;;5095783;28;19928;-60
2022/03/16 00:33:12;;;;;;;;;;;4.40;99.90;;;;;;5094526;28;19928;-60
2022/03/16 00:35:38;;;;;;;;;;;4.30;99.90;;;;;;5096657;28;19924;-60
2022/03/16 00:38:04;;;;;;;;;;;4.20;99.90;;;;;;5094917;28;20394;-60
2022/03/16 00:40:31;;;;;;;;;;;4.20;99.90;;;;;;5096488;28;19959;-60
2022/03/16 00:42:57;;;;;;;;;;;4.20;99.90;;;;;;5096573;28;20006;-59
2022/03/16 00:45:23;;;;;;;;;;;4.20;99.90;;;;;;5101646;28;19928;-60
2022/03/16 00:47:49;;;;;;;;;;;4.20;99.90;;;;;;5095899;28;19924;-59
2022/03/16 00:50:16;;;;;;;;;;;4.30;99.90;;;;;;5094761;28;20386;-59
2022/03/16 00:52:41;;;;;;;;;;;4.20;99.90;;;;;;5093886;28;19924;-60
2022/03/16 00:55:08;;;;;;;;;;;4.20;99.90;;;;;;5095014;28;20015;-60
2022/03/16 00:57:34;;;;;;;;;;;4.20;99.90;;;;;;5095873;28;19997;-60
2022/03/16 01:00:01;;;;;;;;;;;4.20;99.90;;;;;;5079407;28;19935;-60
2022/03/16 01:02:26;;;;;;;;;;;4.20;99.90;;;;;;5075806;28;19928;-59
2022/03/16 01:04:52;;;;;;;;;;;4.20;99.90;;;;;;5076548;28;19924;-60
2022/03/16 01:07:18;;;;;;;;;;;4.20;99.90;;;;;;5093094;28;19931;-60
2022/03/16 01:09:43;;;;;;;;;;;4.20;99.90;;;;;;5094878;28;19931;-60
2022/03/16 01:12:09;;;;;;;;;;;4.20;99.90;;;;;;5096814;28;20312;-60
2022/03/16 01:14:35;;;;;;;;;;;4.20;99.90;;;;;;5094256;28;19975;-60
2022/03/16 01:17:01;;;;;;;;;;;4.10;99.90;;;;;;5095919;28;19950;-60
2022/03/16 01:19:29;;;;;;;;;;;4.10;99.90;;;;;;5095528;28;19924;-60
2022/03/16 01:21:55;;;;;;;;;;;4.10;99.90;;;;;;5094552;28;19924;-60
2022/03/16 01:24:21;;;;;;;;;;;4.00;99.90;;;;;;5094159;28;19924;-60
2022/03/16 01:26:46;;;;;;;;;;;4.00;99.90;;;;;;5095619;28;19971;-60
2022/03/16 01:29:12;;;;;;;;;;;3.90;99.90;;;;;;5093018;28;19975;-59
2022/03/16 01:31:38;;;;;;;;;;;3.90;99.90;;;;;;5095325;28;19967;-59
2022/03/16 01:34:04;;;;;;;;;;;3.80;99.90;;;;;;5094388;28;20346;-60
2022/03/16 01:36:29;;;;;;;;;;;3.80;99.90;;;;;;5092706;28;19924;-60
2022/03/16 01:38:55;;;;;;;;;;;3.80;99.90;;;;;;5095437;28;19977;-59
2022/03/16 01:41:21;;;;;;;;;;;3.80;99.90;;;;;;5094360;28;19931;-59
2022/03/16 01:43:52;;;;;;;;;;;3.80;99.90;;;;;;5094893;28;19924;-60
2022/03/16 01:46:17;;;;;;;;;;;3.80;99.90;;;;;;5073662;28;19924;-59
2022/03/16 01:48:43;;;;;;;;;;;3.70;99.90;;;;;;5089863;28;19966;-60
2022/03/16 01:51:08;;;;;;;;;;;3.70;99.90;;;;;;5093431;28;19951;-59
2022/03/16 01:53:36;;;;;;;;;;;3.70;99.90;;;;;;5094035;28;19935;-60
2022/03/16 01:56:02;;;;;;;;;;;3.70;99.90;;;;;;5093076;28;20289;-59
2022/03/16 01:58:27;;;;;;;;;;;3.70;99.90;;;;;;5090447;28;19989;-60
2022/03/16 02:00:59;;;;;;;;;;;3.70;99.90;;;;;;5073422;28;20076;-59
2022/03/16 02:03:25;;;;;;;;;;;3.70;99.90;;;;;;5072690;28;19929;-59
2022/03/16 02:05:51;;;;;;;;;;;3.60;99.90;;;;;;5056028;28;20382;-59
2022/03/16 02:08:16;;;;;;;;;;;3.60;99.90;;;;;;5089057;28;20300;-59
2022/03/16 02:10:42;;;;;;;;;;;3.50;99.90;;;;;;5096293;28;19931;-59
2022/03/16 02:13:08;;;;;;;;;;;3.50;99.90;;;;;;5094178;28;19924;-59
2022/03/16 02:15:34;;;;;;;;;;;3.40;99.90;;;;;;5094469;28;19975;-59
2022/03/16 02:18:00;;;;;;;;;;;3.30;99.90;;;;;;5093578;28;19967;-59
2022/03/16 02:20:27;;;;;;;;;;;3.20;99.90;;;;;;5094217;28;20334;-59
2022/03/16 02:22:53;;;;;;;;;;;2.60;99.90;;;;;;5094557;28;19924;-59
2022/03/16 02:25:19;;;;;;;;;;;3.10;99.90;;;;;;5090749;28;19931;-60
2022/03/16 02:27:45;;;;;;;;;;;3.20;99.90;;;;;;5072493;28;19925;-59
2022/03/16 02:30:11;;;;;;;;;;;3.20;99.90;;;;;;5073604;28;19924;-59
2022/03/16 02:32:36;;;;;;;;;;;3.20;99.90;;;;;;5073435;28;20479;-59
2022/03/16 02:35:02;;;;;;;;;;;3.30;99.90;;;;;;5088944;28;19928;-59
2022/03/16 02:37:28;;;;;;;;;;;3.30;99.90;;;;;;5093235;28;19924;-60
2022/03/16 02:39:55;;;;;;;;;;;3.30;99.90;;;;;;5092816;28;20378;-59
2022/03/16 02:42:21;;;;;;;;;;;3.20;99.90;;;;;;5093733;28;20297;-59
2022/03/16 02:44:47;;;;;;;;;;;3.10;99.90;;;;;;5085231;28;19931;-59
2022/03/16 02:47:13;;;;;;;;;;;3.00;99.90;;;;;;5072221;28;20290;-59
2022/03/16 02:49:38;;;;;;;;;;;3.00;99.90;;;;;;5072195;28;19931;-59
2022/03/16 02:52:08;;;;;;;;;;;3.00;99.90;;;;;;5081957;28;19955;-59
2022/03/16 02:54:33;;;;;;;;;;;2.90;99.90;;;;;;5092605;28;20385;-60
2022/03/16 02:56:59;;;;;;;;;;;3.00;99.90;;;;;;5075642;28;19923;-59
2022/03/16 02:59:25;;;;;;;;;;;3.00;99.90;;;;;;5080577;28;19924;-59
2022/03/16 03:01:50;;;;;;;;;;;3.00;99.90;;;;;;5090756;28;20311;-59
2022/03/16 03:04:16;;;;;;;;;;;2.90;99.90;;;;;;5092412;28;19928;-59
2022/03/16 03:06:42;;;;;;;;;;;2.90;99.90;;;;;;5091124;28;19924;-59
2022/03/16 03:09:07;;;;;;;;;;;2.90;99.90;;;;;;5092955;28;20010;-59
2022/03/16 03:11:33;;;;;;;;;;;2.90;99.90;;;;;;5095796;28;19985;-59
2022/03/16 03:13:59;;;;;;;;;;;2.90;99.90;;;;;;5092613;28;19924;-59
2022/03/16 03:16:24;;;;;;;;;;;3.00;99.90;;;;;;5093316;28;19924;-59
2022/03/16 03:18:50;;;;;;;;;;;3.10;99.90;;;;;;5093325;28;19924;-59
2022/03/16 03:21:15;;;;;;;;;;;3.00;99.90;;;;;;5091053;28;19928;-59
2022/03/16 03:23:41;;;;;;;;;;;3.00;99.90;;;;;;5093534;28;20293;-59
2022/03/16 03:26:07;;;;;;;;;;;3.10;99.90;;;;;;5093302;28;19924;-59
2022/03/16 03:28:32;;;;;;;;;;;3.10;99.90;;;;;;5090391;28;19924;-59
2022/03/16 03:30:58;;;;;;;;;;;3.10;99.90;;;;;;5093391;28;20351;-59
2022/03/16 03:33:23;;;;;;;;;;;3.00;99.90;;;;;;5091873;28;19967;-59
2022/03/16 03:35:49;;;;;;;;;;;3.00;99.90;;;;;;5091942;28;19974;-59
2022/03/16 03:38:16;;;;;;;;;;;3.00;99.90;;;;;;5093382;28;19923;-59
2022/03/16 03:40:42;;;;;;;;;;;2.90;99.90;;;;;;5092371;28;20346;-59
2022/03/16 03:43:07;;;;;;;;;;;2.90;99.90;;;;;;5092114;28;19931;-59
2022/03/16 03:45:33;;;;;;;;;;;2.90;99.90;;;;;;5092742;28;19928;-59
2022/03/16 03:47:59;;;;;;;;;;;2.90;99.90;;;;;;5092648;28;19978;-59
2022/03/16 03:50:24;;;;;;;;;;;3.00;99.90;;;;;;5092762;28;19931;-59
2022/03/16 03:52:50;;;;;;;;;;;3.00;99.90;;;;;;5092890;28;19966;-59
2022/03/16 03:55:16;;;;;;;;;;;3.00;99.90;;;;;;5092264;28;19947;-59
2022/03/16 03:57:41;;;;;;;;;;;3.00;99.90;;;;;;5092869;28;19925;-59
2022/03/16 04:00:07;;;;;;;;;;;3.00;99.90;;;;;;5092860;28;19931;-59
2022/03/16 04:02:37;;;;;;;;;;;3.00;99.90;;;;;;5090654;28;19927;-59
2022/03/16 04:05:03;;;;;;;;;;;3.00;99.90;;;;;;5092686;28;19924;-59
2022/03/16 04:07:29;;;;;;;;;;;2.90;99.90;;;;;;5092945;28;19931;-60
2022/03/16 04:09:55;;;;;;;;;;;2.90;99.90;;;;;;5092098;28;19924;-59
2022/03/16 04:12:20;;;;;;;;;;;2.90;99.90;;;;;;5092880;28;19939;-59
2022/03/16 04:14:46;;;;;;;;;;;2.90;99.90;;;;;;5091829;28;19924;-59
2022/03/16 04:17:11;;;;;;;;;;;2.90;99.90;;;;;;5092082;28;20271;-60
2022/03/16 04:19:37;;;;;;;;;;;2.80;99.90;;;;;;5092236;28;19924;-59
2022/03/16 04:22:03;;;;;;;;;;;2.80;99.90;;;;;;5091616;28;19928;-59
2022/03/16 04:24:28;;;;;;;;;;;2.80;99.90;;;;;;5092191;28;20345;-59
2022/03/16 04:26:54;;;;;;;;;;;2.80;99.90;;;;;;5092528;28;19981;-59
2022/03/16 04:29:20;;;;;;;;;;;2.80;99.90;;;;;;5092360;28;19950;-59
2022/03/16 04:31:45;;;;;;;;;;;2.80;99.90;;;;;;5091106;28;19992;-59
2022/03/16 04:34:11;;;;;;;;;;;2.70;99.90;;;;;;5092565;28;19964;-59
2022/03/16 04:36:37;;;;;;;;;;;2.60;99.90;;;;;;5074589;28;20433;-59
2022/03/16 04:39:03;;;;;;;;;;;2.60;99.90;;;;;;5091701;28;20068;-59
2022/03/16 04:41:28;;;;;;;;;;;2.50;99.90;;;;;;5092517;28;19947;-59
2022/03/16 04:43:54;;;;;;;;;;;2.50;99.90;;;;;;5092510;28;19969;-59
2022/03/16 04:46:20;;;;;;;;;;;2.50;99.90;;;;;;5077888;28;19920;-59
2022/03/16 04:48:45;;;;;;;;;;;2.40;99.90;;;;;;5095751;28;19935;-59
2022/03/16 04:51:11;;;;;;;;;;;2.40;99.90;;;;;;5094204;28;19946;-59
2022/03/16 04:53:36;;;;;;;;;;;2.40;99.90;;;;;;5096197;28;19924;-59
2022/03/16 04:56:02;;;;;;;;;;;2.30;99.90;;;;;;5095303;28;19935;-59
2022/03/16 04:58:28;;;;;;;;;;;2.30;99.90;;;;;;5092726;28;19928;-59
2022/03/16 05:00:54;;;;;;;;;;;2.40;99.90;;;;;;5076046;28;19939;-59
2022/03/16 05:03:19;;;;;;;;;;;2.30;99.90;;;;;;5075507;28;19931;-59
2022/03/16 05:05:47;;;;;;;;;;;2.40;99.90;;;;;;5094089;28;19924;-59
2022/03/16 05:08:12;;;;;;;;;;;2.40;99.90;;;;;;5077656;28;19930;-59
2022/03/16 05:10:38;;;;;;;;;;;2.40;99.90;;;;;;5097664;28;19924;-59
2022/03/16 05:13:03;;;;;;;;;;;2.40;99.90;;;;;;5093560;28;19924;-59
2022/03/16 05:15:29;;;;;;;;;;;2.40;99.90;;;;;;5095935;28;20370;-59
2022/03/16 05:17:55;;;;;;;;;;;2.40;99.90;;;;;;5095535;28;19931;-59
2022/03/16 05:20:20;;;;;;;;;;;2.40;99.90;;;;;;5093386;28;19924;-59
2022/03/16 05:22:48;;;;;;;;;;;2.40;99.90;;;;;;5095295;28;19937;-59
2022/03/16 05:25:14;;;;;;;;;;;2.40;99.90;;;;;;5087221;28;19925;-59
2022/03/16 05:27:41;;;;;;;;;;;2.50;99.90;;;;;;5094166;28;19931;-59
2022/03/16 05:30:07;;;;;;;;;;;2.50;99.90;;;;;;5095186;28;19935;-59
2022/03/16 05:32:33;;;;;;;;;;;2.60;99.90;;;;;;5095586;28;19931;-59
2022/03/16 05:34:58;;;;;;;;;;;2.60;99.90;;;;;;5094186;28;19924;-59
2022/03/16 05:37:24;;;;;;;;;;;2.60;99.90;;;;;;5095397;28;20374;-59
2022/03/16 05:39:49;;;;;;;;;;;2.70;99.90;;;;;;5093635;28;20378;-59
2022/03/16 05:42:15;;;;;;;;;;;2.80;99.90;;;;;;5093923;28;19967;-59
2022/03/16 05:44:41;;;;;;;;;;;2.80;99.90;;;;;;5086939;28;20475;-59
2022/03/16 05:47:06;;;;;;;;;;;2.80;99.90;;;;;;5073836;28;20396;-59
2022/03/16 05:49:32;;;;;;;;;;;2.90;99.90;;;;;;5087225;28;20397;-59
2022/03/16 05:51:58;;;;;;;;;;;2.90;99.90;;;;;;5093963;28;19924;-59
2022/03/16 05:54:23;;;;;;;;;;;2.90;99.90;;;;;;5093135;28;20374;-58
2022/03/16 05:56:49;;;;;;;;;;;2.90;99.90;;;;;;5093791;28;19962;-59
2022/03/16 05:59:15;;;;;;;;;;;3.00;99.90;;;;;;5085800;28;19925;-59
2022/03/16 06:01:40;;;;;;;;;;;3.00;99.90;;;;;;5072649;28;19928;-59
2022/03/16 06:04:06;;;;;;;;;;;3.00;99.90;;;;;;5074189;28;19998;-59
2022/03/16 06:06:31;;;;;;;;;;;3.10;99.90;;;;;;5083789;28;19947;-59
2022/03/16 06:08:58;;;;;;;;;;;3.10;99.90;;;;;;5093582;28;19977;-59
2022/03/16 06:11:23;;;;;;;;;;;3.10;99.90;;;;;;5096475;28;20003;-59
2022/03/16 06:13:49;;;;;;;;;;;3.20;99.90;;;;;;5094733;28;19988;-60
2022/03/16 06:16:15;;;;;;;;;;;3.20;99.90;;;;;;5093780;28;20394;-59
2022/03/16 06:18:40;;;;;;;;;;;3.20;99.90;;;;;;5092659;28;20336;-59
2022/03/16 06:21:06;;;;;;;;;;;3.30;99.90;;;;;;5094690;28;19928;-59
2022/03/16 06:23:32;;;;;;;;;;;3.30;99.90;;;;;;5092581;28;19958;-59
2022/03/16 06:25:57;;;;;;;;;;;3.40;99.90;;;;;;5093602;28;20369;-59
2022/03/16 06:28:23;;;;;;;;;;;3.40;99.90;;;;;;5092920;28;19924;-59
2022/03/16 06:30:49;;;;;;;;;;;3.50;99.90;;;;;;5092296;28;19932;-59
2022/03/16 06:33:14;;;;;;;;;;;3.50;99.90;;;;;;5093609;28;20015;-59
2022/03/16 06:35:40;;;;;;;;;;;3.50;99.90;;;;;;5094320;28;20250;-59
2022/03/16 06:38:05;;;;;;;;;;;3.60;99.90;;;;;;5093406;28;19928;-58
2022/03/16 06:40:31;;;;;;;;;;;3.70;99.90;;;;;;5093832;28;19955;-59
2022/03/16 06:42:58;;;;;;;;;;;3.70;99.90;;;;;;5092341;28;20298;-59
2022/03/16 06:45:25;;;;;;;;;;;3.70;99.90;;;;;;5080553;28;20400;-59
2022/03/16 06:47:53;;;;;;;;;;;3.80;99.90;;;;;;5073479;28;19927;-59
2022/03/16 06:50:20;;;;;;;;;;;3.80;99.90;;;;;;5079004;28;19925;-59
2022/03/16 06:52:46;;;;;;;;;;;3.90;99.90;;;;;;5093373;28;19934;-59
2022/03/16 06:55:12;;;;;;;;;;;3.90;99.90;;;;;;5093192;28;20360;-59
2022/03/16 06:57:38;;;;;;;;;;;3.90;99.90;;;;;;5092857;28;19924;-59
2022/03/16 07:00:05;;;;;;;;;;;3.90;99.90;;;;;;5088881;28;20270;-59
2022/03/16 07:02:31;;;;;;;;;;;4.00;99.90;;;;;;5093520;28;19924;-59
2022/03/16 07:04:58;;;;;;;;;;;4.10;99.90;;;;;;5091614;28;19930;-59
2022/03/16 07:07:26;;;;;;;;;;;4.10;99.90;;;;;;5092416;28;20015;-59
2022/03/16 07:09:52;;;;;;;;;;;4.20;99.90;;;;;;5093152;28;20018;-60
2022/03/16 07:12:18;;;;;;;;;;;4.30;99.90;;;;;;5086803;28;20012;-60
2022/03/16 07:14:44;;;;;;;;;;;4.30;99.90;;;;;;5081602;28;19932;-60
2022/03/16 07:17:10;;;;;;;;;;;4.40;99.90;;;;;;5080909;28;20378;-59
2022/03/16 07:19:36;;;;;;;;;;;4.50;99.90;;;;;;5093000;28;19935;-59
2022/03/16 07:22:02;;;;;;;;;;;4.50;99.90;;;;;;5093424;28;19924;-60
2022/03/16 07:24:28;;;;;;;;;;;4.60;99.90;;;;;;5092756;28;20366;-60
2022/03/16 07:26:55;;;;;;;;;;;4.70;99.90;;;;;;5092507;28;20286;-60
2022/03/16 07:29:21;;;;;;;;;;;4.80;99.90;;;;;;5093075;28;20259;-60
2022/03/16 07:31:47;;;;;;;;;;;4.90;99.90;;;;;;5092992;28;19940;-60
2022/03/16 07:34:13;;;;;;;;;;;5.00;99.90;;;;;;5092257;28;19928;-60
2022/03/16 07:36:39;;;;;;;;;;;5.10;99.90;;;;;;5092288;28;20019;-60
2022/03/16 07:39:05;;;;;;;;;;;5.20;99.90;;;;;;5092583;28;20512;-60
2022/03/16 07:41:30;;;;;;;;;;;5.20;99.90;;;;;;5092827;28;20007;-60
2022/03/16 07:43:56;;;;;;;;;;;5.30;99.90;;;;;;5091272;28;19928;-60
2022/03/16 07:46:22;;;;;;;;;;;5.40;99.90;;;;;;5072741;28;19929;-60
2022/03/16 07:48:47;;;;;;;;;;;5.50;99.90;;;;;;5072060;28;19924;-61
2022/03/16 07:51:13;;;;;;;;;;;5.50;99.90;;;;;;5071662;28;19924;-58
2022/03/16 07:53:39;;;;;;;;;;;5.60;99.90;;;;;;5089411;28;20017;-58
2022/03/16 07:56:05;;;;;;;;;;;5.70;99.90;;;;;;5092577;28;20454;-58
2022/03/16 07:58:30;;;;;;;;;;;5.80;99.90;;;;;;5090012;28;20324;-58
2022/03/16 08:00:56;;;;;;;;;;;5.90;99.90;;;;;;5075079;28;19928;-58
2022/03/16 08:03:22;;;;;;;;;;;6.10;99.90;;;;;;5086089;28;19951;-58
2022/03/16 08:05:47;;;;;;;;;;;6.10;99.90;;;;;;5080614;28;19924;-58
2022/03/16 08:08:13;;;;;;;;;;;6.20;99.90;;;;;;5079795;28;19925;-58
2022/03/16 08:10:39;;;;;;;;;;;6.40;99.90;;;;;;5087553;28;19934;-58
2022/03/16 08:13:04;;;;;;;;;;;6.50;99.90;;;;;;5083531;28;19984;-58
2022/03/16 08:15:30;;;;;;;;;;;6.70;99.90;;;;;;5080015;28;20425;-58
2022/03/16 08:17:56;;;;;;;;;;;6.80;99.90;;;;;;5081481;28;19928;-58
2022/03/16 08:20:22;;;;;;;;;;;6.80;99.90;;;;;;5086688;28;19924;-58
2022/03/16 08:22:47;;;;;;;;;;;6.80;99.90;;;;;;5088991;28;20405;-58
2022/03/16 08:25:13;;;;;;;;;;;6.90;99.90;;;;;;5088190;28;19925;-58
2022/03/16 08:27:40;;;;;;;;;;;7.00;99.90;;;;;;5095655;28;19924;-58
2022/03/16 08:30:06;;;;;;;;;;;7.20;99.90;;;;;;5093937;28;19924;-58
2022/03/16 08:32:32;;;;;;;;;;;7.40;99.90;;;;;;5096111;28;19924;-59
2022/03/16 08:34:58;;;;;;;;;;;7.60;99.90;;;;;;5095618;28;19927;-58
2022/03/16 08:37:24;;;;;;;;;;;7.80;99.90;;;;;;5095217;28;19928;-59
2022/03/16 08:39:50;;;;;;;;;;;8.00;99.90;;;;;;5094668;28;20293;-59
2022/03/16 08:42:16;;;;;;;;;;;8.20;99.90;;;;;;5095934;28;20018;-58
2022/03/16 08:44:42;;;;;;;;;;;8.30;99.90;;;;;;5094646;28;19924;-59
2022/03/16 08:47:10;;;;;;;;;;;;;;;;;;5075597;28;19921;-59
2022/03/16 08:49:37;;;;;;;;;;;8.60;99.90;;;;;;5105120;28;19928;-58
2022/03/16 08:52:04;;;;;;;;;;;8.70;99.90;;;;;;5093597;28;19927;-58
2022/03/16 08:54:29;;;;;;;;;;;8.80;99.90;;;;;;5093636;28;19943;-59
2022/03/16 08:56:55;;;;;;;;;;;8.90;99.90;;;;;;5095596;28;20362;-59
2022/03/16 08:59:22;;;;;;;;;;;9.00;99.90;;;;;;5082761;28;19927;-59
2022/03/16 09:01:49;;;;;;;;;;;9.10;99.90;;;;;;5092793;28;19924;-59
2022/03/16 09:04:15;;;;;;;;;;;9.20;99.90;;;;;;5090165;28;19925;-59
2022/03/16 09:06:41;;;;;;;;;;;9.20;99.90;;;;;;5075288;28;19928;-59
2022/03/16 09:09:06;;;;;;;;;;;9.50;99.90;;;;;;5074536;28;20438;-59
2022/03/16 09:11:34;;;;;;;;;;;9.60;99.90;;;;;;5099444;28;20298;-59
2022/03/16 09:13:59;;;;;;;;;;;9.80;99.90;;;;;;5095583;28;19928;-59
2022/03/16 09:16:25;;;;;;;;;;;10.00;99.90;;;;;;5094669;28;19931;-59
2022/03/16 09:18:52;;;;;;;;;;;10.20;99.90;;;;;;5094001;28;19924;-59
2022/03/16 09:21:18;;;;;;;;;;;10.30;99.90;;;;;;5095036;28;20062;-59
2022/03/16 09:23:44;;;;;;;;;;;10.50;99.90;;;;;;5093880;28;19924;-59
2022/03/16 09:26:09;;;;;;;;;;;10.70;99.90;;;;;;5094793;28;19931;-59
2022/03/16 09:28:35;;;;;;;;;;;10.90;99.90;;;;;;5094544;28;19966;-59
2022/03/16 09:31:00;;;;;;;;;;;11.10;99.90;;;;;;5093433;28;19924;-60
2022/03/16 09:33:30;;;;;;;;;;;11.20;99.90;;;;;;5094396;28;20038;-59
2022/03/16 09:35:56;;;;;;;;;;;11.40;99.90;;;;;;5095164;28;19928;-59
2022/03/16 09:38:21;;;;;;;;;;;11.50;99.90;;;;;;5092448;28;20392;-59
2022/03/16 09:40:52;;;;;;;;;;;11.70;99.90;;;;;;5094335;28;20018;-59
2022/03/16 09:43:18;;;;;;;;;;;11.90;99.90;;;;;;5094912;28;20432;-59
2022/03/16 09:45:51;;;;;;;;;;;12.00;99.90;;;;;;5093071;28;19924;-60
2022/03/16 09:48:17;;;;;;;;;;;12.10;99.90;;;;;;5082076;28;20363;-59
2022/03/16 09:50:43;;;;;;;;;;;12.20;99.90;;;;;;5074736;28;20271;-59
2022/03/16 09:53:10;;;;;;;;;;;12.50;99.90;;;;;;5080395;28;19932;-59
2022/03/16 09:55:35;;;;;;;;;;;12.60;99.90;;;;;;5093075;28;19920;-60
2022/03/16 09:58:01;;;;;;;;;;;12.80;99.90;;;;;;5094644;28;19928;-60
2022/03/16 10:00:27;;;;;;;;;;;12.90;99.90;;;;;;5086168;28;20010;-59
2022/03/16 10:02:54;;;;;;;;;;;13.10;99.90;;;;;;5084088;28;19928;-60
2022/03/16 10:05:21;;;;;;;;;;;13.20;99.90;;;;;;5087749;28;19993;-59
2022/03/16 10:07:48;;;;;;;;;;;13.40;99.90;;;;;;5072863;28;19924;-59
2022/03/16 10:13:14;;;;;;;;;;;13.60;99.90;;;;;;5076006;28;19924;-59
2022/03/16 10:15:40;;;;;;;;;;;13.80;99.90;;;;;;5076394;28;19929;-59
2022/03/16 10:18:06;;;;;;;;;;;14.00;99.90;;;;;;5074153;28;19924;-59
2022/03/16 10:20:35;;;;;;;;;;;14.30;99.90;;;;;;5077374;28;20362;-60
2022/03/16 10:23:02;;;;;;;;;;;14.50;99.90;;;;;;5090959;28;19924;-59
2022/03/16 10:25:28;;;;;;;;;;;14.90;99.90;;;;;;5109580;28;19920;-60
2022/03/16 10:28:10;;;;;;;;;;;15.20;99.90;;;;;;5094408;28;20036;-59
2022/03/16 10:30:37;;;;;;;;;;;15.50;99.90;;;;;;5092735;28;20294;-59
2022/03/16 10:33:02;;;;;;;;;;;15.70;99.90;;;;;;5085364;28;19932;-59
2022/03/16 10:35:29;;;;;;;;;;;16.00;99.90;;;;;;5073995;28;20137;-60
2022/03/16 10:38:06;;;;;;;;;;;16.20;99.90;;;;;;5072274;28;19976;-60
2022/03/16 10:40:31;;;;;;;;;;;16.50;99.90;;;;;;5083239;28;19931;-60
2022/03/16 10:48:25;;;;;;;;;;;17.10;99.90;;;;;;5084945;28;19924;-60
2022/03/16 10:50:56;;;;;;;;;;;17.20;99.90;;;;;;5076630;28;20290;-59
2022/03/16 10:53:28;;;;;;;;;;;17.40;99.50;;;;;;5078841;28;20007;-59
2022/03/16 10:55:55;;;;;;;;;;;17.70;98.10;;;;;;5084355;28;20295;-59
2022/03/16 10:58:23;;;;;;;;;;;17.70;97.30;;;;;;5084147;28;19932;-59
2022/03/16 11:00:50;;;;;;;;;;;17.60;97.70;;;;;;5083584;28;20043;-60
2022/03/16 11:03:18;;;;;;;;;;;17.50;97.00;;;;;;5084643;28;19924;-59
2022/03/16 11:05:44;;;;;;;;;;;17.40;97.00;;;;;;5092434;28;19931;-60
2022/03/16 11:08:10;;;;;;;;;;;17.10;97.40;;;;;;5091254;28;19931;-60
2022/03/16 11:10:37;;;;;;;;;;;17.00;97.50;;;;;;5095924;28;19928;-60
2022/03/16 11:15:50;;;;;;;;;;;16.80;99.90;;;;;;5092169;28;20378;-60
2022/03/16 11:18:17;;;;;;;;;;;16.80;99.90;;;;;;5092809;28;19968;-60
2022/03/16 11:20:48;;;;;;;;;;;16.60;99.80;;;;;;5085534;28;19925;-60
2022/03/16 11:26:04;;;;;;;;;;;16.40;99.70;;;;;;5089796;28;19930;-60
2022/03/16 11:28:50;;;;;;;;;;;16.20;99.90;;;;;;5085521;28;20394;-60
2022/03/16 11:31:15;;;;;;;;;;;16.20;99.90;;;;;;5084614;28;19931;-60
2022/03/16 11:33:50;;;;;;;;;;;16.30;99.60;;;;;;5092294;28;19924;-60
2022/03/16 11:36:30;;;;;;;;;;;16.40;99.00;;;;;;5086766;28;19967;-60
2022/03/16 11:38:57;;;;;;;;;;;16.70;98.90;;;;;;5083294;28;19928;-60
2022/03/16 11:41:25;;;;;;;;;;;16.90;98.20;;;;;;5085982;28;20050;-59
2022/03/16 11:44:01;;;;;;;;;;;16.90;96.80;;;;;;5091486;28;20267;-60
2022/03/16 11:46:28;;;;;;;;;;;16.80;97.30;;;;;;5071133;28;19935;-60
2022/03/16 11:48:55;;;;;;;;;;;16.60;97.70;;;;;;5072987;28;19925;-59
2022/03/16 11:51:21;;;;;;;;;;;16.50;97.30;;;;;;5079699;28;19925;-60
2022/03/16 11:53:51;;;;;;;;;;;16.40;98.00;;;;;;5093316;28;19924;-60
2022/03/16 11:56:20;;;;;;;;;;;16.40;97.50;;;;;;5093726;28;20014;-60
2022/03/16 11:58:47;;;;;;;;;;;16.40;97.80;;;;;;5085843;28;20471;-60
2022/03/16 12:01:27;;;;;;;;;;;16.40;98.40;;;;;;5087430;28;19927;-60
2022/03/16 12:04:14;;;;;;;;;;;16.40;98.50;;;;;;5087072;28;20347;-60
2022/03/16 12:06:53;;;;;;;;;;;16.50;98.20;;;;;;5096877;28;19927;-60
2022/03/16 12:09:24;;;;;;;;;;;16.70;97.50;;;;;;5095690;28;19928;-60
2022/03/16 12:14:57;;;;;;;;;;;16.90;97.10;;;;;;5116618;27;19924;-60
2022/03/16 12:17:23;;;;;;;;;;;16.90;95.00;;;;;;5112346;28;20394;-60
2022/03/16 12:20:10;;;;;;;;;;;16.90;93.80;;;;;;5096463;28;19946;-60
2022/03/16 12:22:37;;;;;;;;;;;16.80;93.50;;;;;;5095027;28;19924;-60
2022/03/16 12:25:22;;;;;;;;;;;16.80;94.10;;;;;;5095411;28;19932;-60
2022/03/16 12:30:39;;;;;;;;;;;17.10;95.70;;;;;;5077425;28;19924;-60
2022/03/16 12:33:05;;;;;;;;;;;17.70;93.60;;;;;;5096840;28;19931;-60
2022/03/16 12:35:37;;;;;;;;;;;18.00;91.50;;;;;;5094931;28;19924;-60
2022/03/16 12:38:07;;;;;;;;;;;18.30;90.60;;;;;;5096756;28;20286;-60
2022/03/16 12:40:35;;;;;;;;;;;18.70;83.00;;;;;;5095212;28;19924;-60
2022/03/16 12:43:01;;;;;;;;;;;19.00;79.20;;;;;;5095409;28;19947;-60
2022/03/16 12:45:30;;;;;;;;;;;18.90;77.10;;;;;;5096209;28;20366;-60
2022/03/16 12:48:04;;;;;;;;;;;18.70;80.70;;;;;;5096536;28;19928;-60
2022/03/16 12:50:30;;;;;;;;;;;18.20;79.50;;;;;;5088764;28;19972;-60
2022/03/16 12:52:57;;;;;;;;;;;18.10;83.10;;;;;;5086802;28;19924;-60
2022/03/16 12:55:24;;;;;;;;;;;17.90;84.80;;;;;;5085483;28;19920;-60
2022/03/16 12:57:50;;;;;;;;;;;17.90;84.10;;;;;;5084972;28;19936;-60
2022/03/16 13:00:16;;;;;;;;;;;17.90;80.30;;;;;;5083592;28;19920;-61
2022/03/16 13:02:42;;;;;;;;;;;17.90;81.50;;;;;;5087300;28;19931;-60
2022/03/16 13:05:09;;;;;;;;;;;17.90;82.00;;;;;;5092364;28;19928;-60
2022/03/16 13:07:35;;;;;;;;;;;17.90;75.80;;;;;;5094568;28;20007;-60
2022/03/16 13:10:02;;;;;;;;;;;18.10;78.40;;;;;;5093734;28;19929;-60
2022/03/16 13:12:27;;;;;;;;;;;18.70;76.90;;;;;;5093769;28;19936;-60
2022/03/16 13:14:54;;;;;;;;;;;19.50;75.00;;;;;;5089098;28;19928;-60
2022/03/16 13:17:21;;;;;;;;;;;20.40;71.00;;;;;;5087538;28;19924;-61
2022/03/16 13:19:50;;;;;;;;;;;20.80;63.70;;;;;;5087450;28;19928;-60
2022/03/16 13:22:17;;;;;;;;;;;20.90;63.60;;;;;;5093300;28;19925;-60
2022/03/16 13:24:48;;;;;;;;;;;21.00;62.00;;;;;;5094890;28;20331;-60
2022/03/16 13:27:15;;;;;;;;;;;21.00;62.60;;;;;;5092043;28;19926;-60
2022/03/16 13:29:42;;;;;;;;;;;20.90;60.20;;;;;;5092988;28;20360;-61
2022/03/16 13:32:08;;;;;;;;;;;20.70;63.70;;;;;;5094513;28;20005;-61
2022/03/16 13:34:35;;;;;;;;;;;20.40;63.70;;;;;;5094475;28;19963;-61
2022/03/16 13:37:01;;;;;;;;;;;20.10;63.00;;;;;;5094347;28;20378;-60
2022/03/16 13:39:28;;;;;;;;;;;19.70;63.60;;;;;;5094000;28;19924;-61
2022/03/16 13:42:05;;;;;;;;;;;19.60;65.30;;;;;;5094485;28;19939;-61
2022/03/16 13:44:37;;;;;;;;;;;19.50;67.30;;;;;;5095147;28;20011;-60
2022/03/16 13:47:04;;;;;;;;;;;19.50;66.90;;;;;;5089052;28;20018;-61
2022/03/16 13:49:32;;;;;;;;;;;19.50;66.40;;;;;;5088216;28;20009;-60
2022/03/16 13:52:04;;;;;;;;;;;19.30;65.80;;;;;;5094962;28;19924;-61
2022/03/16 13:54:30;;;;;;;;;;;19.10;66.60;;;;;;5094223;28;19920;-60
2022/03/16 13:57:04;;;;;;;;;;;18.90;65.80;;;;;;5093520;28;20275;-60
2022/03/16 13:59:30;;;;;;;;;;;18.60;65.80;;;;;;5095152;28;20396;-60
2022/03/16 14:02:07;;;;;;;;;;;18.10;66.20;;;;;;5092717;28;19924;-60
2022/03/16 14:04:36;;;;;;;;;;;17.80;69.50;;;;;;5094316;28;20014;-60
2022/03/16 14:07:15;;;;;;;;;;;17.30;71.60;;;;;;5094257;28;19954;-60
2022/03/16 14:09:42;;;;;;;;;;;16.90;72.00;;;;;;5094625;28;19924;-60
2022/03/16 14:12:10;;;;;;;;;;;16.50;78.40;;;;;;5081994;28;20293;-60
2022/03/16 14:14:36;;;;;;;;;;;16.40;81.80;;;;;;5076023;28;20019;-60
2022/03/16 14:17:02;;;;;;;;;;;16.60;85.20;;;;;;5094474;28;19946;-60
2022/03/16 14:19:28;;;;;;;;;;;17.00;83.90;;;;;;5085064;28;19970;-60
2022/03/16 14:21:54;;;;;;;;;;;17.30;82.70;;;;;;5082128;28;19932;-60
2022/03/16 14:24:20;;;;;;;;;;;17.30;81.30;;;;;;5094246;28;20102;-60
2022/03/16 14:26:46;;;;;;;;;;;17.10;81.90;;;;;;5094241;28;19924;-60
2022/03/16 14:29:11;;;;;;;;;;;16.80;81.60;;;;;;5091959;28;19924;-61
2022/03/16 14:31:37;;;;;;;;;;;16.60;84.90;;;;;;5094165;28;19928;-60
2022/03/16 14:34:05;;;;;;;;;;;16.50;87.50;;;;;;5093983;28;19924;-60
2022/03/16 14:36:33;;;;;;;;;;;16.40;88.00;;;;;;5093681;28;19920;-60
2022/03/16 14:38:58;;;;;;;;;;;16.30;90.00;;;;;;5092873;28;19931;-61
2022/03/16 14:41:25;;;;;;;;;;;16.30;91.20;;;;;;5093980;28;20297;-60
2022/03/16 14:43:51;;;;;;;;;;;16.40;92.60;;;;;;5093381;28;19928;-60